createdAt,value
2022-11-05T00:01:11.474Z,58.75
2022-11-05T00:03:56.883Z,58.07
2022-11-05T00:06:42.435Z,58.53
2022-11-05T00:09:30.537Z,57.98
2022-11-05T00:12:23.365Z,57.93
2022-11-05T00:15:11.032Z,58.03
2022-11-05T00:17:38.536Z,58.80
2022-11-05T00:20:06.535Z,58.50
2022-11-05T00:22:51.789Z,58.14
2022-11-05T00:25:20.312Z,58.19
2022-11-05T00:27:49.876Z,58.97
2022-11-05T00:30:23.043Z,58.91
2022-11-05T00:32:51.380Z,59.47
2022-11-05T00:35:23.299Z,59.53
2022-11-05T00:37:50.732Z,58.94
2022-11-05T00:40:20.745Z,59.15
2022-11-05T00:43:06.152Z,59.14
2022-11-05T00:45:33.238Z,58.83
2022-11-05T00:48:18.673Z,58.54
2022-11-05T00:50:45.454Z,58.78
2022-11-05T00:53:12.586Z,58.68
2022-11-05T00:55:42.088Z,59.07
2022-11-05T00:58:14.252Z,59.43
2022-11-05T01:00:43.589Z,59.80
2022-11-05T01:03:13.303Z,59.47
2022-11-05T01:05:46.629Z,59.05
2022-11-05T01:08:14.790Z,60.06
2022-11-05T01:10:50.024Z,59.77
2022-11-05T01:13:23.286Z,60.16
2022-11-05T01:15:51.063Z,59.67
2022-11-05T01:18:19.314Z,58.98
2022-11-05T01:20:50.544Z,58.98
2022-11-05T01:23:24.869Z,59.68
2022-11-05T01:25:51.491Z,59.70
2022-11-05T01:28:18.209Z,59.70
2022-11-05T01:30:44.774Z,60.78
2022-11-05T01:33:11.685Z,60.50
2022-11-05T01:35:39.282Z,60.54
2022-11-05T01:38:09.086Z,60.60
2022-11-05T01:40:42.596Z,60.76
2022-11-05T01:43:16.663Z,60.82
2022-11-05T01:45:48.800Z,60.61
2022-11-05T01:48:21.354Z,60.84
2022-11-05T01:51:01.268Z,60.47
2022-11-05T01:53:44.822Z,60.89
2022-11-05T01:56:27.712Z,60.68
2022-11-05T01:59:06.582Z,60.18
2022-11-05T02:01:37.018Z,60.48
2022-11-05T02:04:08.633Z,61.15
2022-11-05T02:06:38.340Z,61.22
2022-11-05T02:09:09.209Z,60.83
2022-11-05T02:11:37.251Z,60.78
2022-11-05T02:14:04.346Z,61.07
2022-11-05T02:16:41.471Z,60.95
2022-11-05T02:19:48.817Z,61.02
2022-11-05T02:22:43.202Z,60.64
2022-11-05T02:25:37.509Z,60.72
2022-11-05T02:28:26.340Z,60.44
2022-11-05T02:31:07.738Z,60.94
2022-11-05T02:34:05.593Z,60.71
2022-11-05T02:36:38.088Z,60.35
2022-11-05T02:39:40.318Z,60.67
2022-11-05T02:42:06.854Z,60.89
2022-11-05T02:44:59.239Z,61.29
2022-11-05T02:47:42.537Z,60.90
2022-11-05T02:50:36.485Z,60.64
2022-11-05T02:53:19.349Z,60.86
2022-11-05T02:56:22.929Z,60.78
2022-11-05T02:58:49.643Z,60.55
2022-11-05T03:01:19.636Z,60.33
2022-11-05T03:03:51.410Z,60.52
2022-11-05T03:06:48.685Z,60.61
2022-11-05T03:09:57.464Z,60.95
2022-11-05T03:13:13.298Z,61.23
2022-11-05T03:16:02.460Z,61.71
2022-11-05T03:18:46.217Z,60.97
2022-11-05T03:21:22.099Z,61.60
2022-11-05T03:23:56.545Z,62.12
2022-11-05T03:26:32.022Z,60.97
2022-11-05T03:29:17.132Z,60.92
2022-11-05T03:31:47.843Z,61.75
2022-11-05T03:34:18.189Z,62.10
2022-11-05T03:36:52.929Z,62.28
2022-11-05T03:39:30.657Z,62.12
2022-11-05T03:41:59.240Z,62.15
2022-11-05T03:44:32.878Z,62.63
2022-11-05T03:47:19.660Z,62.66
2022-11-05T03:50:00.196Z,62.22
2022-11-05T03:52:33.623Z,62.49
2022-11-05T03:55:00.515Z,63.02
2022-11-05T03:57:35.388Z,63.42
2022-11-05T04:00:07.957Z,63.47
2022-11-05T04:02:35.062Z,62.92
2022-11-05T04:05:02.165Z,63.00
2022-11-05T04:07:47.561Z,62.88
2022-11-05T04:10:32.990Z,63.29
2022-11-05T04:13:18.620Z,62.68
2022-11-05T04:16:04.838Z,63.05
2022-11-05T04:18:32.994Z,63.32
2022-11-05T04:21:23.643Z,62.77
2022-11-05T04:24:09.202Z,63.31
2022-11-05T04:26:39.498Z,63.43
2022-11-05T04:29:27.264Z,63.37
2022-11-05T04:31:59.536Z,62.87
2022-11-05T04:34:26.403Z,63.29
2022-11-05T04:36:53.419Z,63.05
2022-11-05T04:39:20.991Z,63.07
2022-11-05T04:41:51.722Z,63.23
2022-11-05T04:44:18.547Z,62.99
2022-11-05T04:46:48.443Z,63.07
2022-11-05T04:49:15.210Z,63.47
2022-11-05T04:51:42.066Z,62.62
2022-11-05T04:54:08.979Z,62.95
2022-11-05T04:56:35.737Z,63.18
2022-11-05T04:59:02.408Z,62.23
2022-11-05T05:01:29.238Z,62.83
2022-11-05T05:03:55.954Z,62.74
2022-11-05T05:06:23.279Z,63.30
2022-11-05T05:08:51.570Z,62.84
2022-11-05T05:11:21.171Z,63.11
2022-11-05T05:13:50.919Z,63.09
2022-11-05T05:16:27.864Z,62.98
2022-11-05T05:18:55.097Z,62.62
2022-11-05T05:21:41.581Z,62.87
2022-11-05T05:24:15.314Z,62.92
2022-11-05T05:26:45.063Z,62.99
2022-11-05T05:29:12.136Z,62.85
2022-11-05T05:31:42.576Z,62.73
2022-11-05T05:34:15.213Z,62.45
2022-11-05T05:36:41.932Z,62.18
2022-11-05T05:39:11.198Z,62.19
2022-11-05T05:41:38.219Z,61.89
2022-11-05T05:44:06.640Z,61.86
2022-11-05T05:46:33.529Z,60.92
2022-11-05T05:49:00.298Z,61.59
2022-11-05T05:51:27.058Z,61.66
2022-11-05T05:53:56.552Z,62.03
2022-11-05T05:56:24.908Z,62.48
2022-11-05T05:58:51.904Z,62.17
2022-11-05T06:01:21.543Z,61.66
2022-11-05T06:03:49.378Z,61.37
2022-11-05T06:06:20.016Z,60.68
2022-11-05T06:08:47.705Z,61.38
2022-11-05T06:11:14.771Z,61.11
2022-11-05T06:13:41.962Z,60.56
2022-11-05T06:16:09.721Z,60.48
2022-11-05T06:18:37.487Z,61.03
2022-11-05T06:21:06.265Z,61.20
2022-11-05T06:23:34.526Z,60.42
2022-11-05T06:26:03.155Z,60.51
2022-11-05T06:28:30.085Z,59.25
2022-11-05T06:30:57.944Z,60.03
2022-11-05T06:33:27.033Z,59.86
2022-11-05T06:35:54.991Z,60.06
2022-11-05T06:38:21.632Z,59.87
2022-11-05T06:40:49.858Z,59.96
2022-11-05T06:43:19.587Z,59.92
2022-11-05T06:45:51.312Z,59.53
2022-11-05T06:48:18.016Z,59.59
2022-11-05T06:50:47.688Z,59.74
2022-11-05T06:53:17.454Z,59.37
2022-11-05T06:55:50.485Z,59.68
2022-11-05T06:58:17.097Z,59.68
2022-11-05T07:00:43.940Z,59.29
2022-11-05T07:03:12.272Z,58.78
2022-11-05T07:05:45.330Z,58.77
2022-11-05T07:08:15.917Z,58.57
2022-11-05T07:10:44.299Z,58.34
2022-11-05T07:13:11.377Z,58.30
2022-11-05T07:15:38.840Z,58.28
2022-11-05T07:18:08.670Z,58.60
2022-11-05T07:20:35.860Z,57.97
2022-11-05T07:23:04.261Z,57.69
2022-11-05T07:25:32.764Z,57.82
2022-11-05T07:27:59.994Z,57.63
2022-11-05T07:30:29.816Z,57.33
2022-11-05T07:33:02.191Z,57.17
2022-11-05T07:35:29.310Z,57.11
2022-11-05T07:37:58.937Z,57.61
2022-11-05T07:40:27.780Z,56.86
2022-11-05T07:43:00.285Z,57.02
2022-11-05T07:45:28.625Z,56.66
2022-11-05T07:48:03.658Z,56.72
2022-11-05T07:50:35.428Z,55.66
2022-11-05T07:53:11.720Z,55.73
2022-11-05T07:55:43.952Z,55.67
2022-11-05T07:58:11.071Z,56.14
2022-11-05T08:00:37.823Z,55.64
2022-11-05T08:03:12.498Z,55.14
2022-11-05T08:05:41.401Z,55.08
2022-11-05T08:08:09.638Z,54.00
2022-11-05T08:10:42.701Z,53.89
2022-11-05T08:13:10.508Z,54.06
2022-11-05T08:15:37.439Z,53.14
2022-11-05T08:18:07.010Z,53.76
2022-11-05T08:20:34.982Z,53.73
2022-11-05T08:23:05.340Z,54.07
2022-11-05T08:25:35.950Z,53.93
2022-11-05T08:28:08.784Z,53.77
2022-11-05T08:30:36.347Z,53.10
2022-11-05T08:33:06.880Z,53.05
2022-11-05T08:35:35.393Z,52.71
2022-11-05T08:38:04.360Z,52.38
2022-11-05T08:40:33.565Z,52.46
2022-11-05T08:43:04.723Z,53.36
2022-11-05T08:45:33.175Z,52.47
2022-11-05T08:48:09.049Z,52.83
2022-11-05T08:50:37.352Z,52.00
2022-11-05T08:53:11.629Z,52.02
2022-11-05T08:55:41.131Z,51.92
2022-11-05T08:58:12.686Z,52.31
2022-11-05T09:00:43.580Z,52.70
2022-11-05T09:03:10.850Z,52.35
2022-11-05T09:05:42.580Z,53.25
2022-11-05T09:08:14.864Z,52.71
2022-11-05T09:10:43.797Z,52.66
2022-11-05T09:13:18.204Z,52.31
2022-11-05T09:15:48.683Z,52.20
2022-11-05T09:18:19.618Z,52.07
2022-11-05T09:20:46.666Z,51.65
2022-11-05T09:23:19.647Z,51.76
2022-11-05T09:25:49.429Z,51.17
2022-11-05T09:28:21.368Z,51.47
2022-11-05T09:30:50.859Z,51.21
2022-11-05T09:33:21.652Z,50.60
2022-11-05T09:35:48.864Z,50.84
2022-11-05T09:38:15.906Z,50.95
2022-11-05T09:41:21.521Z,50.37
2022-11-05T09:43:56.682Z,50.73
2022-11-05T09:46:30.401Z,50.99
2022-11-05T09:49:08.243Z,50.65
2022-11-05T09:51:37.232Z,50.15
2022-11-05T09:54:05.645Z,49.95
2022-11-05T09:56:36.976Z,49.83
2022-11-05T09:59:16.722Z,48.84
2022-11-05T10:01:45.310Z,48.53
2022-11-05T10:04:21.285Z,47.97
2022-11-05T10:07:00.978Z,48.28
2022-11-05T10:09:48.272Z,47.16
2022-11-05T10:12:32.377Z,47.73
2022-11-05T10:15:27.459Z,46.93
2022-11-05T10:18:05.068Z,45.73
2022-11-05T10:20:46.841Z,46.59
2022-11-05T10:23:22.001Z,45.73
2022-11-05T10:25:55.190Z,45.30
2022-11-05T10:28:33.542Z,43.85
2022-11-05T10:31:05.248Z,43.35
2022-11-05T10:33:35.054Z,42.96
2022-11-05T10:36:15.253Z,42.81
2022-11-05T10:38:41.997Z,43.50
2022-11-05T10:41:46.407Z,41.95
2022-11-05T10:44:36.562Z,42.04
2022-11-05T10:47:12.653Z,40.66
2022-11-05T10:49:59.065Z,41.05
2022-11-05T10:52:42.022Z,41.02
2022-11-05T10:55:37.542Z,39.59
2022-11-05T10:58:29.165Z,39.34
2022-11-05T11:00:55.882Z,40.88
2022-11-05T11:03:44.835Z,39.27
2022-11-05T11:06:29.911Z,39.16
2022-11-05T11:09:00.071Z,38.98
2022-11-05T11:11:37.605Z,38.69
2022-11-05T11:14:24.551Z,38.64
2022-11-05T11:17:15.111Z,39.51
2022-11-05T11:19:41.845Z,39.29
2022-11-05T11:22:14.530Z,40.33
2022-11-05T11:24:50.899Z,40.93
2022-11-05T11:27:27.569Z,40.46
2022-11-05T11:30:00.379Z,40.97
2022-11-05T11:32:36.101Z,41.08
2022-11-05T11:35:06.339Z,41.40
2022-11-05T11:37:42.301Z,41.19
2022-11-05T11:40:22.692Z,42.01
2022-11-05T11:42:58.038Z,41.14
2022-11-05T11:45:38.471Z,41.38
2022-11-05T11:48:07.243Z,41.29
2022-11-05T11:50:33.976Z,40.29
2022-11-05T11:53:36.378Z,40.51
2022-11-05T11:56:13.991Z,40.92
2022-11-05T11:58:54.151Z,39.62
2022-11-05T12:01:36.487Z,39.67
2022-11-05T12:04:46.674Z,39.33
2022-11-05T12:07:21.197Z,39.13
2022-11-05T12:10:15.989Z,38.07
2022-11-05T12:13:16.630Z,37.30
2022-11-05T12:15:52.262Z,37.75
2022-11-05T12:18:36.170Z,38.24
2022-11-05T12:21:52.448Z,38.58
2022-11-05T12:25:11.715Z,39.66
2022-11-05T12:27:38.258Z,40.01
2022-11-05T12:30:25.696Z,38.88
2022-11-05T12:33:21.819Z,39.60
2022-11-05T12:35:57.915Z,39.90
2022-11-05T12:38:27.786Z,40.37
2022-11-05T12:41:32.056Z,40.48
2022-11-05T12:44:21.160Z,41.37
2022-11-05T12:47:40.538Z,41.52
2022-11-05T12:50:19.598Z,41.14
2022-11-05T12:53:10.347Z,40.87
2022-11-05T12:55:44.127Z,41.11
2022-11-05T12:58:26.274Z,41.38
2022-11-05T13:01:02.003Z,41.23
2022-11-05T13:03:31.950Z,41.52
2022-11-05T13:06:06.953Z,41.14
2022-11-05T13:08:39.971Z,41.69
2022-11-05T13:11:39.013Z,41.47
2022-11-05T13:14:14.203Z,41.95
2022-11-05T13:16:47.328Z,41.55
2022-11-05T13:19:21.446Z,42.44
2022-11-05T13:21:54.817Z,42.10
2022-11-05T13:24:29.073Z,41.76
2022-11-05T13:27:24.974Z,41.85
2022-11-05T13:30:04.614Z,42.48
2022-11-05T13:32:38.171Z,42.74
2022-11-05T13:35:14.264Z,42.57
2022-11-05T13:38:03.555Z,42.53
2022-11-05T13:40:45.007Z,42.68
2022-11-05T13:43:23.732Z,42.86
2022-11-05T13:46:13.126Z,42.58
2022-11-05T13:49:05.272Z,42.66
2022-11-05T13:51:50.618Z,42.85
2022-11-05T13:55:20.130Z,43.47
2022-11-05T13:58:01.995Z,43.19
2022-11-05T14:00:31.035Z,43.47
2022-11-05T14:03:03.408Z,44.20
2022-11-05T14:05:38.268Z,44.39
2022-11-05T14:08:13.058Z,43.92
2022-11-05T14:10:43.529Z,43.70
2022-11-05T14:13:40.860Z,43.36
2022-11-05T14:16:18.440Z,43.54
2022-11-05T14:18:46.380Z,43.21
2022-11-05T14:21:45.342Z,43.45
2022-11-05T14:24:26.071Z,43.65
2022-11-05T14:27:02.065Z,43.34
2022-11-05T14:29:47.004Z,43.21
2022-11-05T14:32:19.905Z,44.10
2022-11-05T14:35:04.671Z,43.27
2022-11-05T14:37:39.049Z,43.04
2022-11-05T14:40:27.742Z,42.79
2022-11-05T14:43:03.411Z,43.23
2022-11-05T14:45:40.868Z,43.28
2022-11-05T14:48:43.604Z,43.22
2022-11-05T14:51:25.003Z,43.90
2022-11-05T14:54:01.520Z,43.72
2022-11-05T14:56:28.428Z,43.40
2022-11-05T14:59:31.503Z,44.21
2022-11-05T15:02:04.447Z,44.67
2022-11-05T15:04:37.368Z,44.55
2022-11-05T15:07:04.072Z,43.99
2022-11-05T15:09:59.831Z,44.07
2022-11-05T15:12:46.785Z,43.59
2022-11-05T15:15:23.153Z,43.89
2022-11-05T15:18:25.739Z,46.07
2022-11-05T15:21:00.163Z,47.61
2022-11-05T15:23:35.857Z,45.48
2022-11-05T15:26:16.104Z,44.20
2022-11-05T15:28:46.754Z,44.77
2022-11-05T15:31:13.309Z,45.65
2022-11-05T15:33:46.829Z,46.71
2022-11-05T15:36:31.165Z,44.55
2022-11-05T15:39:27.848Z,44.70
2022-11-05T15:41:46.962Z,44.79
2022-11-05T15:44:31.650Z,44.86
2022-11-05T15:47:18.562Z,44.73
2022-11-05T15:49:52.085Z,44.58
2022-11-05T15:52:22.105Z,45.13
2022-11-05T15:55:13.235Z,45.75
2022-11-05T15:57:57.471Z,45.82
2022-11-05T16:00:26.894Z,46.02
2022-11-05T16:03:23.196Z,46.21
2022-11-05T16:05:53.449Z,48.27
2022-11-05T16:08:29.224Z,47.80
2022-11-05T16:11:00.986Z,47.83
2022-11-05T16:13:30.328Z,49.00
2022-11-05T16:16:00.381Z,48.22
2022-11-05T16:18:43.586Z,47.67
2022-11-05T16:21:18.334Z,47.53
2022-11-05T16:23:57.392Z,47.95
2022-11-05T16:27:01.798Z,49.08
2022-11-05T16:29:40.739Z,49.79
2022-11-05T16:32:17.291Z,50.16
2022-11-05T16:34:59.232Z,50.19
2022-11-05T16:37:27.997Z,49.90
2022-11-05T16:40:10.264Z,50.46
2022-11-05T16:42:41.829Z,49.68
2022-11-05T16:45:12.818Z,49.85
2022-11-05T16:47:40.013Z,49.42
2022-11-05T16:50:15.540Z,49.43
2022-11-05T16:52:47.574Z,49.45
2022-11-05T16:55:15.899Z,50.52
2022-11-05T16:57:45.835Z,50.35
2022-11-05T17:03:04.329Z,51.10
2022-11-05T17:05:31.586Z,51.79
2022-11-05T17:08:01.114Z,51.92
2022-11-05T17:10:29.640Z,52.73
2022-11-05T17:12:56.699Z,52.19
2022-11-05T17:15:31.485Z,52.88
2022-11-05T17:17:59.890Z,53.11
2022-11-05T17:20:38.559Z,53.21
2022-11-05T17:23:14.980Z,53.23
2022-11-05T17:25:45.890Z,52.81
2022-11-05T17:28:16.035Z,53.57
2022-11-05T17:30:49.241Z,53.31
2022-11-05T17:33:20.327Z,52.63
2022-11-05T17:35:49.048Z,53.91
2022-11-05T17:38:15.921Z,54.17
2022-11-05T17:40:48.575Z,54.93
2022-11-05T17:43:16.061Z,55.04
2022-11-05T17:45:47.901Z,54.69
2022-11-05T17:48:16.211Z,54.39
2022-11-05T17:50:46.693Z,54.81
2022-11-05T17:53:15.303Z,54.61
2022-11-05T17:55:45.305Z,55.40
2022-11-05T17:58:16.193Z,55.59
2022-11-05T18:00:44.539Z,55.75
2022-11-05T18:03:12.623Z,55.92
2022-11-05T18:05:40.778Z,55.94
2022-11-05T18:08:11.898Z,56.07
2022-11-05T18:10:39.675Z,56.34
2022-11-05T18:13:11.213Z,56.62
2022-11-05T18:15:43.129Z,55.63
2022-11-05T18:18:10.171Z,56.51
2022-11-05T18:20:37.717Z,56.68
2022-11-05T18:23:35.587Z,56.01
2022-11-05T18:26:05.606Z,56.46
2022-11-05T18:28:32.788Z,57.08
2022-11-05T18:30:59.403Z,57.32
2022-11-05T18:33:26.402Z,56.27
2022-11-05T18:35:57.888Z,56.58
2022-11-05T18:38:24.604Z,57.20
2022-11-05T18:40:51.564Z,56.57
2022-11-05T18:43:19.530Z,56.19
2022-11-05T18:45:46.338Z,55.35
2022-11-05T18:48:13.995Z,55.32
2022-11-05T18:50:43.055Z,55.55
2022-11-05T18:53:12.695Z,56.81
2022-11-05T18:55:41.018Z,57.07
2022-11-05T18:58:11.148Z,56.22
2022-11-05T19:00:45.317Z,57.09
2022-11-05T19:03:12.947Z,56.38
2022-11-05T19:05:40.778Z,55.81
2022-11-05T19:08:07.677Z,56.34
2022-11-05T19:10:34.391Z,56.39
2022-11-05T19:13:01.872Z,56.00
2022-11-05T19:15:29.201Z,55.92
2022-11-05T19:17:56.155Z,55.39
2022-11-05T19:20:25.248Z,55.79
2022-11-05T19:22:52.331Z,55.79
2022-11-05T19:25:19.439Z,55.67
2022-11-05T19:27:49.058Z,56.45
2022-11-05T19:30:16.021Z,56.58
2022-11-05T19:32:43.257Z,56.62
2022-11-05T19:35:10.967Z,56.69
2022-11-05T19:37:38.272Z,56.89
2022-11-05T19:40:05.501Z,57.35
2022-11-05T19:42:35.690Z,57.18
2022-11-05T19:45:23.169Z,57.00
2022-11-05T19:47:49.304Z,58.07
2022-11-05T19:50:16.080Z,58.49
2022-11-05T19:52:42.766Z,58.98
2022-11-05T19:55:12.271Z,58.73
2022-11-05T19:57:39.233Z,58.02
2022-11-05T20:00:06.332Z,57.93
2022-11-05T20:02:33.033Z,58.08
2022-11-05T20:05:02.680Z,57.93
2022-11-05T20:07:33.374Z,58.18
2022-11-05T20:09:59.954Z,58.10
2022-11-05T20:12:27.194Z,56.98
2022-11-05T20:14:54.073Z,56.88
2022-11-05T20:17:21.710Z,56.62
2022-11-05T20:19:48.563Z,56.67
2022-11-05T20:22:15.723Z,56.46
2022-11-05T20:24:43.367Z,57.64
2022-11-05T20:27:10.516Z,58.40
2022-11-05T20:29:37.542Z,58.66
2022-11-05T20:32:04.919Z,59.19
2022-11-05T20:34:33.556Z,59.75
2022-11-05T20:37:00.631Z,59.73
2022-11-05T20:39:30.495Z,60.05
2022-11-05T20:42:00.795Z,59.30
2022-11-05T20:44:28.130Z,59.23
2022-11-05T20:46:54.970Z,59.53
2022-11-05T20:49:25.338Z,60.25
2022-11-05T20:51:52.798Z,60.36
2022-11-05T20:54:20.739Z,60.69
2022-11-05T20:56:48.250Z,59.98
2022-11-05T20:59:14.974Z,59.90
2022-11-05T21:01:41.964Z,59.55
2022-11-05T21:04:08.975Z,59.97
2022-11-05T21:06:37.988Z,60.29
2022-11-05T21:09:08.265Z,59.25
2022-11-05T21:11:58.367Z,59.16
2022-11-05T21:14:25.652Z,59.93
2022-11-05T21:16:53.985Z,59.81
2022-11-05T21:19:25.973Z,60.60
2022-11-05T21:21:52.809Z,60.61
2022-11-05T21:24:20.982Z,60.36
2022-11-05T21:26:51.747Z,60.19
2022-11-05T21:29:24.710Z,59.45
2022-11-05T21:31:52.011Z,59.24
2022-11-05T21:34:19.927Z,60.77
2022-11-05T21:36:48.094Z,60.69
2022-11-05T21:39:15.927Z,60.21
2022-11-05T21:41:48.654Z,60.84
2022-11-05T21:44:17.219Z,60.92
2022-11-05T21:46:45.307Z,60.62
2022-11-05T21:49:14.804Z,60.83
2022-11-05T21:52:00.366Z,60.74
2022-11-05T21:54:46.718Z,61.25
2022-11-05T21:57:40.745Z,60.93
2022-11-05T22:00:10.383Z,60.40
2022-11-05T22:02:37.500Z,60.08
2022-11-05T22:05:08.617Z,60.84
2022-11-05T22:07:40.689Z,60.01
2022-11-05T22:10:15.902Z,60.61
2022-11-05T22:12:43.841Z,61.28
2022-11-05T22:15:10.990Z,62.24
2022-11-05T22:17:40.430Z,61.60
2022-11-05T22:20:11.115Z,61.85
2022-11-05T22:22:41.647Z,62.04
2022-11-05T22:25:08.703Z,62.22
2022-11-05T22:27:35.706Z,61.99
2022-11-05T22:30:05.927Z,62.60
2022-11-05T22:32:33.396Z,62.77
2022-11-05T22:35:06.592Z,62.95
2022-11-05T22:37:33.529Z,62.67
2022-11-05T22:40:12.485Z,62.61
2022-11-05T22:42:39.369Z,63.09
2022-11-05T22:45:07.367Z,62.72
2022-11-05T22:47:34.459Z,63.30
2022-11-05T22:50:01.612Z,63.12
2022-11-05T22:52:33.529Z,63.44
2022-11-05T22:55:09.771Z,63.25
2022-11-05T22:57:36.333Z,63.44
2022-11-05T23:00:19.973Z,64.42
2022-11-05T23:02:47.436Z,63.75
2022-11-05T23:05:17.054Z,63.71
2022-11-05T23:08:04.774Z,62.48
2022-11-05T23:10:50.416Z,62.86
2022-11-05T23:13:17.958Z,63.14
2022-11-05T23:16:06.090Z,63.63
2022-11-05T23:18:51.259Z,63.46
2022-11-05T23:21:36.940Z,63.91
2022-11-05T23:24:12.122Z,63.74
2022-11-05T23:26:51.880Z,63.59
2022-11-05T23:29:26.289Z,63.83
2022-11-05T23:32:12.013Z,64.21
2022-11-05T23:34:39.398Z,64.33
2022-11-05T23:37:24.660Z,64.51
2022-11-05T23:39:51.700Z,64.52
2022-11-05T23:42:40.627Z,64.31
2022-11-05T23:45:30.186Z,63.97
2022-11-05T23:48:16.112Z,64.15
2022-11-05T23:50:49.881Z,64.07
2022-11-05T23:53:19.822Z,64.40
2022-11-05T23:55:46.480Z,63.96
2022-11-05T23:58:16.598Z,64.19
